createdAt,value
2023-01-19T00:00:28.279Z,56.72
2023-01-19T00:01:28.178Z,56.88
2023-01-19T00:02:28.223Z,55.75
2023-01-19T00:03:28.141Z,58.97
2023-01-19T00:04:28.138Z,55.91
2023-01-19T00:05:28.143Z,56.24
2023-01-19T00:06:28.158Z,58.49
2023-01-19T00:07:28.106Z,55.59
2023-01-19T00:08:28.101Z,58.97
2023-01-19T00:09:28.154Z,55.91
2023-01-19T00:10:28.095Z,58.01
2023-01-19T00:11:28.076Z,55.75
2023-01-19T00:12:28.056Z,56.07
2023-01-19T00:13:28.048Z,58.65
2023-01-19T00:14:28.031Z,58.33
2023-01-19T00:15:28.057Z,59.62
2023-01-19T00:16:28.077Z,57.85
2023-01-19T00:17:28.014Z,58.01
2023-01-19T00:18:27.994Z,57.04
2023-01-19T00:19:27.984Z,57.69
2023-01-19T00:20:28.012Z,57.20
2023-01-19T00:21:27.969Z,58.01
2023-01-19T00:22:27.968Z,57.20
2023-01-19T00:23:27.962Z,55.91
2023-01-19T00:24:27.942Z,56.24
2023-01-19T00:25:27.944Z,56.56
2023-01-19T00:26:27.932Z,57.04
2023-01-19T00:27:27.913Z,57.36
2023-01-19T00:28:27.898Z,58.97
2023-01-19T00:29:27.886Z,57.04
2023-01-19T00:30:27.882Z,58.33
2023-01-19T00:31:27.965Z,57.85
2023-01-19T00:32:27.876Z,57.36
2023-01-19T00:33:27.866Z,58.49
2023-01-19T00:34:27.837Z,57.04
2023-01-19T00:35:27.828Z,58.01
2023-01-19T00:36:27.826Z,60.10
2023-01-19T00:37:27.821Z,57.52
2023-01-19T00:38:27.794Z,56.56
2023-01-19T00:39:27.793Z,57.36
2023-01-19T00:40:27.780Z,57.36
2023-01-19T00:41:27.793Z,58.01
2023-01-19T00:42:27.753Z,57.04
2023-01-19T00:43:27.753Z,58.33
2023-01-19T00:44:27.749Z,59.30
2023-01-19T00:45:27.792Z,58.97
2023-01-19T00:46:27.726Z,57.20
2023-01-19T00:47:27.714Z,56.24
2023-01-19T00:48:27.697Z,56.72
2023-01-19T00:49:27.685Z,57.04
2023-01-19T00:50:27.671Z,58.49
2023-01-19T00:51:27.683Z,58.33
2023-01-19T00:52:27.674Z,57.20
2023-01-19T00:53:27.657Z,59.30
2023-01-19T00:54:27.755Z,58.01
2023-01-19T00:55:27.634Z,56.72
2023-01-19T00:56:27.658Z,56.56
2023-01-19T00:57:27.655Z,56.88
2023-01-19T00:58:27.599Z,56.24
2023-01-19T00:59:27.605Z,58.01
2023-01-19T01:00:27.588Z,59.94
2023-01-19T01:01:45.048Z,56.07
2023-01-19T01:02:28.758Z,59.46
2023-01-19T01:03:27.572Z,56.88
2023-01-19T01:04:27.550Z,57.85
2023-01-19T01:05:27.536Z,57.69
2023-01-19T01:06:27.541Z,56.88
2023-01-19T01:07:27.513Z,58.01
2023-01-19T01:08:27.504Z,58.33
2023-01-19T01:09:27.548Z,57.69
2023-01-19T01:10:27.494Z,56.24
2023-01-19T01:11:27.494Z,59.62
2023-01-19T01:12:27.459Z,57.85
2023-01-19T01:13:28.037Z,57.52
2023-01-19T01:14:28.430Z,57.69
2023-01-19T01:15:27.496Z,56.72
2023-01-19T01:16:27.473Z,59.46
2023-01-19T01:17:27.455Z,56.56
2023-01-19T01:18:27.400Z,56.40
2023-01-19T01:19:27.393Z,58.81
2023-01-19T01:20:27.388Z,57.69
2023-01-19T01:21:27.405Z,57.20
2023-01-19T01:22:27.357Z,58.17
2023-01-19T01:23:27.361Z,58.17
2023-01-19T01:24:27.348Z,58.33
2023-01-19T01:25:27.363Z,57.85
2023-01-19T01:26:27.880Z,57.20
2023-01-19T01:27:27.341Z,58.65
2023-01-19T01:28:27.306Z,57.04
2023-01-19T01:29:27.303Z,56.88
2023-01-19T01:30:27.284Z,56.24
2023-01-19T01:31:27.313Z,55.91
2023-01-19T01:32:27.269Z,56.72
2023-01-19T01:33:41.340Z,56.72
2023-01-19T01:34:28.244Z,57.20
2023-01-19T01:35:27.241Z,57.69
2023-01-19T01:36:27.258Z,55.91
2023-01-19T01:37:27.222Z,57.04
2023-01-19T01:38:27.205Z,55.59
2023-01-19T01:39:27.198Z,56.56
2023-01-19T01:40:27.190Z,57.52
2023-01-19T01:41:27.200Z,57.20
2023-01-19T01:42:27.266Z,57.69
2023-01-19T01:43:27.158Z,56.56
2023-01-19T01:44:27.173Z,56.88
2023-01-19T01:45:27.191Z,57.85
2023-01-19T01:46:27.173Z,58.17
2023-01-19T01:47:27.119Z,56.24
2023-01-19T01:48:27.106Z,56.72
2023-01-19T01:49:27.098Z,58.97
2023-01-19T01:50:27.079Z,57.36
2023-01-19T01:51:27.113Z,55.11
2023-01-19T01:52:27.079Z,55.59
2023-01-19T01:53:27.063Z,56.88
2023-01-19T01:54:27.039Z,57.04
2023-01-19T01:55:27.051Z,55.27
2023-01-19T01:56:27.050Z,54.95
2023-01-19T01:57:27.025Z,56.88
2023-01-19T01:58:27.010Z,57.85
2023-01-19T01:59:27.020Z,56.40
2023-01-19T02:00:26.995Z,57.04
2023-01-19T02:01:29.229Z,56.88
2023-01-19T02:02:26.997Z,54.14
2023-01-19T02:03:27.021Z,55.43
2023-01-19T02:04:26.959Z,56.07
2023-01-19T02:05:26.949Z,56.56
2023-01-19T02:06:26.958Z,56.88
2023-01-19T02:07:26.929Z,56.88
2023-01-19T02:08:26.921Z,55.91
2023-01-19T02:09:26.896Z,56.72
2023-01-19T02:10:26.903Z,55.11
2023-01-19T02:11:26.906Z,55.91
2023-01-19T02:12:26.875Z,58.33
2023-01-19T02:13:26.852Z,55.11
2023-01-19T02:14:26.853Z,56.88
2023-01-19T02:15:26.851Z,57.85
2023-01-19T02:16:26.860Z,58.01
2023-01-19T02:17:26.818Z,58.01
2023-01-19T02:18:26.804Z,56.72
2023-01-19T02:19:26.806Z,57.36
2023-01-19T02:20:26.786Z,56.88
2023-01-19T02:21:26.803Z,56.88
2023-01-19T02:22:26.771Z,57.36
2023-01-19T02:23:26.758Z,58.17
2023-01-19T02:24:26.751Z,56.72
2023-01-19T02:25:26.748Z,56.07
2023-01-19T02:26:26.752Z,56.72
2023-01-19T02:27:26.729Z,57.52
2023-01-19T02:28:26.715Z,56.88
2023-01-19T02:29:26.705Z,55.91
2023-01-19T02:30:26.726Z,56.07
2023-01-19T02:31:26.706Z,58.17
2023-01-19T02:32:26.682Z,57.52
2023-01-19T02:33:26.666Z,56.72
2023-01-19T02:34:26.655Z,55.91
2023-01-19T02:35:26.649Z,58.33
2023-01-19T02:36:26.655Z,57.85
2023-01-19T02:37:26.635Z,55.59
2023-01-19T02:38:26.614Z,56.24
2023-01-19T02:39:26.608Z,57.20
2023-01-19T02:40:26.608Z,57.69
2023-01-19T02:41:26.664Z,55.59
2023-01-19T02:42:26.578Z,56.40
2023-01-19T02:43:26.567Z,57.20
2023-01-19T02:44:26.559Z,55.75
2023-01-19T02:45:26.551Z,56.40
2023-01-19T02:46:26.559Z,56.88
2023-01-19T02:47:26.539Z,57.85
2023-01-19T02:48:26.525Z,57.85
2023-01-19T02:49:26.517Z,55.59
2023-01-19T02:50:26.510Z,55.27
2023-01-19T02:51:26.519Z,58.81
2023-01-19T02:52:26.485Z,58.97
2023-01-19T02:53:26.466Z,58.17
2023-01-19T02:54:26.470Z,58.65
2023-01-19T02:55:26.455Z,56.88
2023-01-19T02:56:26.471Z,57.04
2023-01-19T02:57:26.427Z,57.36
2023-01-19T02:58:26.419Z,59.14
2023-01-19T02:59:26.413Z,58.97
2023-01-19T03:00:26.405Z,57.69
2023-01-19T03:01:26.511Z,57.36
2023-01-19T03:02:26.422Z,57.85
2023-01-19T03:03:26.380Z,59.46
2023-01-19T03:04:26.378Z,57.85
2023-01-19T03:05:26.368Z,57.36
2023-01-19T03:06:26.371Z,58.97
2023-01-19T03:07:26.335Z,58.01
2023-01-19T03:08:26.325Z,57.36
2023-01-19T03:09:26.313Z,58.33
2023-01-19T03:10:26.304Z,57.36
2023-01-19T03:11:26.314Z,55.91
2023-01-19T03:12:26.284Z,56.72
2023-01-19T03:13:26.288Z,58.81
2023-01-19T03:14:26.265Z,60.91
2023-01-19T03:15:26.294Z,58.33
2023-01-19T03:16:26.286Z,57.04
2023-01-19T03:17:26.226Z,56.24
2023-01-19T03:18:26.219Z,58.97
2023-01-19T03:19:26.211Z,59.94
2023-01-19T03:20:27.203Z,58.17
2023-01-19T03:21:26.210Z,57.52
2023-01-19T03:22:26.219Z,57.20
2023-01-19T03:23:26.188Z,59.78
2023-01-19T03:24:26.166Z,59.30
2023-01-19T03:25:26.162Z,56.72
2023-01-19T03:26:26.143Z,60.42
2023-01-19T03:27:26.150Z,58.65
2023-01-19T03:28:26.125Z,56.72
2023-01-19T03:29:26.110Z,57.52
2023-01-19T03:30:26.116Z,57.20
2023-01-19T03:31:26.100Z,58.17
2023-01-19T03:32:26.112Z,58.81
2023-01-19T03:33:26.090Z,60.59
2023-01-19T03:34:26.073Z,57.36
2023-01-19T03:35:26.058Z,56.72
2023-01-19T03:36:26.052Z,57.20
2023-01-19T03:37:26.069Z,58.97
2023-01-19T03:38:26.027Z,59.30
2023-01-19T03:39:26.020Z,57.36
2023-01-19T03:40:26.002Z,58.49
2023-01-19T03:41:26.078Z,59.46
2023-01-19T03:42:26.007Z,58.33
2023-01-19T03:43:25.976Z,58.65
2023-01-19T03:44:25.970Z,58.33
2023-01-19T03:45:25.966Z,56.07
2023-01-19T03:46:26.015Z,60.59
2023-01-19T03:47:25.968Z,58.17
2023-01-19T03:48:25.924Z,57.69
2023-01-19T03:49:25.915Z,59.46
2023-01-19T03:50:25.903Z,59.30
2023-01-19T03:51:25.900Z,58.49
2023-01-19T03:52:25.897Z,57.20
2023-01-19T03:53:25.877Z,58.17
2023-01-19T03:54:25.868Z,59.46
2023-01-19T03:55:25.859Z,58.01
2023-01-19T03:56:25.845Z,58.49
2023-01-19T03:57:25.850Z,58.97
2023-01-19T03:58:25.833Z,58.01
2023-01-19T03:59:25.824Z,58.17
2023-01-19T04:00:25.810Z,57.85
2023-01-19T04:01:25.879Z,58.33
2023-01-19T04:02:25.898Z,60.91
2023-01-19T04:03:25.780Z,58.97
2023-01-19T04:04:25.778Z,57.36
2023-01-19T04:05:25.752Z,58.49
2023-01-19T04:06:25.750Z,59.30
2023-01-19T04:07:25.764Z,58.97
2023-01-19T04:08:25.735Z,58.49
2023-01-19T04:09:25.744Z,58.97
2023-01-19T04:10:25.713Z,59.30
2023-01-19T04:11:25.734Z,60.75
2023-01-19T04:12:25.715Z,62.04
2023-01-19T04:13:25.686Z,58.97
2023-01-19T04:14:25.670Z,60.26
2023-01-19T04:15:25.664Z,61.07
2023-01-19T04:16:25.658Z,58.97
2023-01-19T04:17:25.657Z,60.26
2023-01-19T04:18:25.628Z,61.23
2023-01-19T04:19:25.630Z,60.26
2023-01-19T04:20:25.609Z,62.36
2023-01-19T04:21:25.592Z,60.59
2023-01-19T04:22:25.621Z,60.91
2023-01-19T04:23:25.586Z,59.14
2023-01-19T04:24:25.573Z,60.75
2023-01-19T04:25:25.574Z,61.23
2023-01-19T04:26:25.552Z,63.16
2023-01-19T04:27:25.560Z,60.42
2023-01-19T04:28:25.535Z,60.75
2023-01-19T04:29:25.543Z,62.04
2023-01-19T04:30:25.524Z,61.39
2023-01-19T04:31:25.517Z,61.07
2023-01-19T04:32:25.515Z,61.55
2023-01-19T04:33:25.490Z,60.91
2023-01-19T04:34:25.466Z,60.91
2023-01-19T04:35:25.463Z,61.71
2023-01-19T04:36:25.451Z,63.49
2023-01-19T04:37:25.463Z,60.42
2023-01-19T04:38:25.426Z,60.59
2023-01-19T04:39:25.433Z,61.23
2023-01-19T04:40:25.429Z,60.75
2023-01-19T04:41:25.406Z,60.42
2023-01-19T04:42:25.412Z,61.71
2023-01-19T04:43:25.408Z,63.00
2023-01-19T04:44:25.373Z,61.23
2023-01-19T04:45:25.373Z,60.42
2023-01-19T04:46:25.365Z,61.39
2023-01-19T04:47:25.378Z,60.42
2023-01-19T04:48:25.345Z,62.84
2023-01-19T04:49:25.327Z,61.23
2023-01-19T04:50:25.308Z,61.71
2023-01-19T04:51:25.309Z,63.16
2023-01-19T04:52:25.320Z,61.87
2023-01-19T04:53:25.295Z,63.97
2023-01-19T04:54:25.338Z,61.39
2023-01-19T04:55:25.264Z,62.36
2023-01-19T04:56:25.275Z,62.52
2023-01-19T04:57:25.394Z,62.52
2023-01-19T04:58:25.230Z,62.20
2023-01-19T04:59:25.223Z,63.81
2023-01-19T05:00:25.224Z,61.39
2023-01-19T05:01:26.218Z,61.55
2023-01-19T05:02:25.216Z,62.04
2023-01-19T05:03:26.565Z,60.59
2023-01-19T05:04:26.186Z,62.52
2023-01-19T05:05:25.173Z,62.20
2023-01-19T05:06:25.166Z,61.71
2023-01-19T05:07:25.167Z,61.07
2023-01-19T05:08:25.144Z,62.36
2023-01-19T05:09:25.122Z,62.52
2023-01-19T05:10:25.116Z,63.81
2023-01-19T05:11:25.107Z,62.84
2023-01-19T05:12:25.114Z,62.68
2023-01-19T05:13:25.098Z,63.81
2023-01-19T05:14:25.086Z,63.49
2023-01-19T05:15:25.067Z,62.52
2023-01-19T05:16:25.156Z,63.49
2023-01-19T05:17:25.064Z,62.68
2023-01-19T05:18:25.045Z,63.00
2023-01-19T05:19:25.028Z,63.00
2023-01-19T05:20:25.027Z,62.52
2023-01-19T05:21:25.012Z,64.29
2023-01-19T05:22:25.049Z,64.94
2023-01-19T05:23:24.985Z,63.81
2023-01-19T05:24:24.983Z,63.49
2023-01-19T05:25:24.970Z,63.16
2023-01-19T05:26:24.959Z,62.52
2023-01-19T05:27:24.967Z,64.61
2023-01-19T05:28:24.940Z,64.61
2023-01-19T05:29:24.939Z,62.68
2023-01-19T05:30:24.915Z,62.52
2023-01-19T05:31:25.017Z,62.84
2023-01-19T05:32:24.917Z,63.16
2023-01-19T05:33:24.876Z,64.45
2023-01-19T05:34:24.881Z,64.61
2023-01-19T05:35:35.248Z,63.33
2023-01-19T05:36:26.857Z,64.45
2023-01-19T05:37:24.885Z,65.42
2023-01-19T05:38:34.533Z,63.65
2023-01-19T05:39:26.837Z,65.42
2023-01-19T05:40:24.827Z,64.61
2023-01-19T05:41:24.803Z,65.58
2023-01-19T05:42:24.815Z,63.16
2023-01-19T05:43:24.786Z,64.78
2023-01-19T05:44:24.777Z,64.94
2023-01-19T05:45:24.760Z,66.06
2023-01-19T05:46:24.800Z,64.61
2023-01-19T05:47:24.773Z,63.97
2023-01-19T05:48:24.745Z,64.45
2023-01-19T05:49:24.720Z,62.20
2023-01-19T05:50:24.719Z,64.61
2023-01-19T05:51:24.708Z,63.33
2023-01-19T05:52:24.717Z,65.10
2023-01-19T05:53:24.704Z,63.49
2023-01-19T05:54:24.682Z,63.49
2023-01-19T05:55:24.668Z,63.49
2023-01-19T05:56:24.676Z,63.33
2023-01-19T05:57:24.664Z,63.33
2023-01-19T05:58:24.636Z,63.00
2023-01-19T05:59:24.637Z,63.81
2023-01-19T06:00:24.632Z,64.13
2023-01-19T06:01:24.658Z,64.29
2023-01-19T06:02:24.632Z,62.68
2023-01-19T06:03:24.627Z,62.52
2023-01-19T06:04:24.580Z,63.97
2023-01-19T06:05:24.567Z,62.84
2023-01-19T06:06:24.561Z,63.16
2023-01-19T06:07:25.656Z,62.84
2023-01-19T06:08:24.557Z,65.74
2023-01-19T06:09:24.531Z,63.97
2023-01-19T06:10:24.530Z,63.00
2023-01-19T06:11:24.514Z,64.61
2023-01-19T06:12:24.519Z,63.49
2023-01-19T06:13:24.494Z,63.00
2023-01-19T06:14:24.486Z,62.04
2023-01-19T06:15:24.466Z,65.90
2023-01-19T06:16:24.520Z,65.74
2023-01-19T06:17:24.455Z,64.94
2023-01-19T06:18:24.442Z,63.49
2023-01-19T06:19:24.432Z,62.52
2023-01-19T06:20:24.418Z,64.61
2023-01-19T06:21:24.402Z,65.74
2023-01-19T06:22:24.426Z,64.94
2023-01-19T06:23:26.705Z,63.97
2023-01-19T06:24:24.381Z,64.61
2023-01-19T06:25:24.367Z,64.78
2023-01-19T06:26:24.368Z,66.39
2023-01-19T06:27:24.367Z,63.65
2023-01-19T06:28:24.372Z,65.10
2023-01-19T06:29:24.317Z,65.42
2023-01-19T06:30:24.320Z,64.45
2023-01-19T06:31:24.340Z,63.49
2023-01-19T06:32:24.316Z,64.94
2023-01-19T06:33:24.282Z,63.49
2023-01-19T06:34:24.277Z,65.42
2023-01-19T06:35:24.269Z,65.74
2023-01-19T06:36:24.270Z,64.94
2023-01-19T06:37:24.269Z,64.45
2023-01-19T06:38:24.241Z,65.26
2023-01-19T06:39:24.251Z,65.90
2023-01-19T06:40:24.225Z,64.13
2023-01-19T06:41:24.212Z,62.68
2023-01-19T06:42:24.200Z,65.74
2023-01-19T06:43:24.221Z,65.26
2023-01-19T06:44:24.181Z,66.87
2023-01-19T06:45:24.170Z,64.29
2023-01-19T06:46:24.167Z,64.94
2023-01-19T06:47:24.149Z,64.94
2023-01-19T06:48:24.166Z,63.97
2023-01-19T06:49:24.132Z,64.94
2023-01-19T06:50:24.122Z,64.45
2023-01-19T06:51:24.115Z,64.94
2023-01-19T06:52:24.105Z,64.61
2023-01-19T06:53:24.104Z,63.97
2023-01-19T06:54:24.083Z,63.16
2023-01-19T06:55:24.420Z,64.13
2023-01-19T06:56:24.063Z,63.49
2023-01-19T06:57:24.048Z,64.29
2023-01-19T06:58:24.063Z,64.61
2023-01-19T06:59:24.033Z,63.97
2023-01-19T07:00:24.022Z,62.84
2023-01-19T07:01:25.086Z,62.84
2023-01-19T07:02:26.696Z,63.00
2023-01-19T07:03:24.063Z,64.13
2023-01-19T07:04:23.997Z,65.58
2023-01-19T07:05:23.981Z,65.58
2023-01-19T07:06:23.967Z,63.65
2023-01-19T07:07:24.024Z,65.10
2023-01-19T07:08:23.965Z,64.29
2023-01-19T07:09:23.921Z,65.26
2023-01-19T07:10:23.920Z,64.61
2023-01-19T07:11:30.803Z,63.97
2023-01-19T07:12:24.904Z,63.65
2023-01-19T07:13:23.915Z,63.81
2023-01-19T07:14:23.883Z,64.45
2023-01-19T07:15:23.876Z,63.81
2023-01-19T07:16:23.920Z,64.78
2023-01-19T07:17:23.856Z,63.81
2023-01-19T07:18:23.867Z,62.52
2023-01-19T07:19:23.834Z,63.00
2023-01-19T07:20:23.822Z,63.33
2023-01-19T07:21:23.813Z,63.33
2023-01-19T07:22:23.806Z,64.13
2023-01-19T07:23:23.811Z,64.61
2023-01-19T07:24:23.792Z,64.29
2023-01-19T07:25:23.771Z,64.61
2023-01-19T07:26:23.764Z,64.61
2023-01-19T07:27:23.758Z,64.29
2023-01-19T07:28:23.761Z,65.10
2023-01-19T07:29:23.739Z,63.49
2023-01-19T07:30:23.718Z,63.81
2023-01-19T07:31:23.868Z,64.45
2023-01-19T07:32:23.709Z,63.65
2023-01-19T07:33:23.707Z,63.00
2023-01-19T07:34:23.683Z,64.29
2023-01-19T07:35:23.676Z,62.84
2023-01-19T07:36:23.674Z,63.00
2023-01-19T07:37:23.700Z,62.04
2023-01-19T07:38:23.670Z,63.49
2023-01-19T07:39:23.647Z,64.29
2023-01-19T07:40:24.100Z,63.33
2023-01-19T07:41:24.612Z,64.13
2023-01-19T07:42:23.612Z,63.49
2023-01-19T07:43:23.616Z,62.04
2023-01-19T07:44:23.587Z,63.49
2023-01-19T07:45:23.579Z,62.20
2023-01-19T07:46:23.691Z,63.49
2023-01-19T07:47:23.559Z,63.81
2023-01-19T07:48:23.573Z,62.68
2023-01-19T07:49:23.525Z,63.49
2023-01-19T07:50:23.534Z,64.13
2023-01-19T07:51:23.522Z,61.07
2023-01-19T07:52:23.510Z,61.23
2023-01-19T07:53:23.509Z,63.33
2023-01-19T07:54:23.488Z,62.52
2023-01-19T07:55:23.486Z,62.20
2023-01-19T07:56:23.467Z,62.04
2023-01-19T07:57:23.451Z,63.97
2023-01-19T07:58:23.476Z,61.87
2023-01-19T07:59:23.463Z,62.84
2023-01-19T08:00:23.435Z,61.87
2023-01-19T08:01:23.490Z,64.29
2023-01-19T08:02:23.464Z,61.71
2023-01-19T08:03:23.421Z,62.68
2023-01-19T08:04:23.423Z,62.04
2023-01-19T08:05:23.381Z,63.16
2023-01-19T08:06:23.378Z,62.68
2023-01-19T08:07:23.369Z,62.52
2023-01-19T08:08:23.382Z,63.65
2023-01-19T08:09:23.349Z,62.36
2023-01-19T08:10:23.339Z,65.26
2023-01-19T08:11:23.337Z,61.55
2023-01-19T08:12:23.329Z,61.55
2023-01-19T08:13:23.324Z,62.52
2023-01-19T08:14:23.295Z,62.20
2023-01-19T08:15:23.323Z,63.00
2023-01-19T08:16:23.264Z,63.49
2023-01-19T08:17:23.271Z,63.33
2023-01-19T08:18:23.337Z,63.33
2023-01-19T08:19:23.250Z,62.04
2023-01-19T08:20:23.233Z,63.16
2023-01-19T08:21:23.238Z,62.68
2023-01-19T08:22:23.227Z,63.81
2023-01-19T08:23:23.234Z,63.49
2023-01-19T08:24:23.253Z,63.65
2023-01-19T08:25:23.201Z,65.10
2023-01-19T08:26:23.184Z,64.61
2023-01-19T08:27:23.167Z,63.33
2023-01-19T08:28:23.182Z,63.49
2023-01-19T08:29:23.159Z,62.36
2023-01-19T08:30:23.273Z,63.97
2023-01-19T08:31:24.845Z,63.97
2023-01-19T08:32:24.181Z,64.94
2023-01-19T08:33:23.230Z,64.61
2023-01-19T08:34:23.116Z,63.49
2023-01-19T08:35:23.099Z,64.29
2023-01-19T08:36:23.096Z,64.45
2023-01-19T08:37:23.079Z,63.49
2023-01-19T08:38:23.108Z,63.97
2023-01-19T08:39:23.063Z,64.61
2023-01-19T08:40:23.093Z,63.65
2023-01-19T08:41:24.046Z,63.49
2023-01-19T08:42:23.036Z,65.58
2023-01-19T08:43:23.051Z,63.65
2023-01-19T08:44:23.023Z,62.68
2023-01-19T08:45:23.004Z,64.61
2023-01-19T08:46:23.130Z,66.39
2023-01-19T08:47:23.018Z,64.61
2023-01-19T08:48:23.003Z,63.81
2023-01-19T08:49:22.984Z,62.52
2023-01-19T08:50:22.959Z,62.52
2023-01-19T08:51:22.955Z,64.61
2023-01-19T08:52:22.948Z,62.68
2023-01-19T08:53:22.968Z,63.81
2023-01-19T08:54:22.925Z,63.00
2023-01-19T08:55:22.933Z,62.04
2023-01-19T08:56:22.922Z,64.94
2023-01-19T08:57:22.889Z,63.97
2023-01-19T08:58:22.917Z,63.97
2023-01-19T08:59:22.882Z,64.61
2023-01-19T09:00:22.927Z,64.94
2023-01-19T09:01:22.980Z,64.13
2023-01-19T09:02:23.034Z,65.10
2023-01-19T09:03:23.025Z,63.49
2023-01-19T09:04:22.836Z,62.52
2023-01-19T09:05:22.821Z,63.16
2023-01-19T09:06:22.873Z,64.13
2023-01-19T09:07:22.811Z,64.94
2023-01-19T09:08:22.815Z,63.33
2023-01-19T09:09:22.782Z,63.97
2023-01-19T09:10:22.780Z,63.49
2023-01-19T09:11:22.772Z,63.49
2023-01-19T09:12:22.760Z,62.68
2023-01-19T09:13:22.756Z,63.00
2023-01-19T09:14:22.756Z,63.16
2023-01-19T09:15:22.732Z,64.45
2023-01-19T09:16:22.782Z,62.68
2023-01-19T09:17:22.712Z,62.84
2023-01-19T09:18:22.733Z,65.58
2023-01-19T09:19:22.702Z,62.36
2023-01-19T09:20:22.692Z,62.84
2023-01-19T09:21:22.699Z,63.00
2023-01-19T09:22:22.727Z,62.20
2023-01-19T09:23:23.696Z,63.65
2023-01-19T09:24:22.654Z,63.97
2023-01-19T09:25:22.638Z,63.00
2023-01-19T09:26:22.641Z,62.84
2023-01-19T09:27:22.639Z,63.65
2023-01-19T09:28:22.669Z,63.81
2023-01-19T09:29:22.608Z,64.78
2023-01-19T09:30:22.599Z,62.20
2023-01-19T09:31:22.685Z,63.81
2023-01-19T09:32:22.602Z,63.97
2023-01-19T09:33:22.603Z,63.16
2023-01-19T09:34:22.557Z,63.49
2023-01-19T09:35:22.556Z,63.81
2023-01-19T09:36:22.560Z,63.00
2023-01-19T09:37:22.539Z,63.16
2023-01-19T09:38:22.564Z,63.81
2023-01-19T09:39:22.528Z,62.84
2023-01-19T09:40:22.526Z,62.84
2023-01-19T09:41:22.557Z,63.97
2023-01-19T09:42:23.482Z,63.81
2023-01-19T09:43:22.530Z,63.33
2023-01-19T09:44:22.483Z,63.00
2023-01-19T09:45:22.464Z,62.36
2023-01-19T09:46:22.485Z,63.00
2023-01-19T09:47:22.461Z,63.81
2023-01-19T09:48:22.464Z,62.84
2023-01-19T09:49:22.440Z,62.20
2023-01-19T09:50:22.419Z,62.04
2023-01-19T09:51:23.418Z,61.71
2023-01-19T09:52:22.453Z,61.87
2023-01-19T09:53:22.551Z,63.16
2023-01-19T09:54:22.491Z,63.16
2023-01-19T09:55:22.521Z,62.04
2023-01-19T09:56:22.374Z,63.49
2023-01-19T09:57:22.375Z,63.00
2023-01-19T09:58:22.387Z,62.20
2023-01-19T09:59:22.351Z,62.84
2023-01-19T10:00:22.345Z,61.07
2023-01-19T10:01:22.420Z,60.75
2023-01-19T10:02:22.334Z,63.33
2023-01-19T10:03:22.377Z,62.68
2023-01-19T10:04:22.324Z,63.16
2023-01-19T10:05:22.300Z,62.20
2023-01-19T10:06:22.282Z,63.49
2023-01-19T10:07:22.284Z,62.04
2023-01-19T10:08:22.286Z,62.04
2023-01-19T10:09:22.290Z,62.84
2023-01-19T10:10:22.275Z,62.20
2023-01-19T10:11:22.235Z,62.52
2023-01-19T10:12:23.240Z,63.00
2023-01-19T10:13:22.231Z,65.10
2023-01-19T10:14:22.238Z,64.29
2023-01-19T10:15:22.218Z,64.29
2023-01-19T10:16:22.237Z,63.65
2023-01-19T10:17:22.188Z,64.94
2023-01-19T10:18:22.180Z,70.09
2023-01-19T10:19:23.211Z,63.00
2023-01-19T10:20:22.181Z,63.65
2023-01-19T10:21:22.182Z,63.49
2023-01-19T10:22:22.201Z,63.16
2023-01-19T10:23:22.159Z,67.35
2023-01-19T10:24:22.166Z,63.97
2023-01-19T10:25:22.204Z,63.49
2023-01-19T10:26:22.152Z,69.61
2023-01-19T10:27:22.117Z,64.94
2023-01-19T10:28:22.138Z,64.94
2023-01-19T10:29:22.119Z,65.42
2023-01-19T10:30:22.114Z,63.97
2023-01-19T10:31:22.159Z,64.94
2023-01-19T10:32:22.089Z,64.45
2023-01-19T10:33:22.081Z,66.23
2023-01-19T10:34:23.661Z,66.87
2023-01-19T10:35:23.063Z,68.16
2023-01-19T10:36:22.034Z,65.90
2023-01-19T10:37:22.026Z,64.13
2023-01-19T10:38:22.170Z,66.55
2023-01-19T10:39:22.026Z,64.78
2023-01-19T10:40:21.994Z,63.49
2023-01-19T10:41:21.993Z,64.13
2023-01-19T10:42:21.981Z,63.33
2023-01-19T10:43:21.975Z,64.78
2023-01-19T10:44:21.984Z,72.67
2023-01-19T10:45:21.940Z,62.04
2023-01-19T10:46:22.039Z,66.55
2023-01-19T10:47:21.958Z,67.03
2023-01-19T10:48:21.943Z,65.74
2023-01-19T10:49:21.930Z,63.81
2023-01-19T10:50:21.927Z,63.65
2023-01-19T10:51:21.917Z,63.81
2023-01-19T10:52:21.934Z,63.97
2023-01-19T10:53:21.874Z,63.81
2023-01-19T10:54:21.896Z,63.00
2023-01-19T10:55:21.859Z,63.33
2023-01-19T10:56:21.886Z,62.68
2023-01-19T10:57:21.847Z,64.45
2023-01-19T10:58:21.849Z,63.33
2023-01-19T10:59:21.843Z,64.61
2023-01-19T11:00:21.858Z,64.78
2023-01-19T11:01:21.975Z,63.97
2023-01-19T11:02:22.142Z,65.10
2023-01-19T11:03:21.881Z,64.61
2023-01-19T11:04:21.806Z,66.06
2023-01-19T11:05:21.779Z,64.61
2023-01-19T11:06:21.755Z,66.06
2023-01-19T11:07:21.766Z,63.65
2023-01-19T11:08:21.743Z,66.06
2023-01-19T11:09:21.761Z,65.58
2023-01-19T11:10:22.518Z,65.26
2023-01-19T11:11:21.716Z,64.78
2023-01-19T11:12:21.733Z,66.06
2023-01-19T11:13:21.699Z,65.90
2023-01-19T11:14:21.710Z,63.97
2023-01-19T11:15:21.698Z,64.45
2023-01-19T11:16:21.740Z,66.55
2023-01-19T11:17:21.663Z,66.23
2023-01-19T11:18:21.657Z,66.71
2023-01-19T11:19:21.666Z,65.42
2023-01-19T11:20:21.642Z,65.58
2023-01-19T11:21:21.669Z,67.19
2023-01-19T11:22:21.644Z,66.39
2023-01-19T11:23:21.624Z,66.06
2023-01-19T11:24:21.635Z,68.00
2023-01-19T11:25:21.609Z,66.55
2023-01-19T11:26:21.599Z,67.35
2023-01-19T11:27:21.595Z,66.39
2023-01-19T11:28:21.569Z,70.09
2023-01-19T11:29:21.587Z,65.90
2023-01-19T11:30:21.565Z,66.23
2023-01-19T11:31:21.712Z,66.87
2023-01-19T11:32:21.532Z,70.42
2023-01-19T11:33:21.533Z,73.48
2023-01-19T11:34:21.546Z,66.39
2023-01-19T11:35:21.520Z,68.32
2023-01-19T11:36:21.513Z,64.78
2023-01-19T11:37:21.502Z,66.39
2023-01-19T11:38:21.533Z,65.74
2023-01-19T11:39:21.505Z,65.58
2023-01-19T11:40:21.470Z,66.06
2023-01-19T11:41:21.461Z,65.42
2023-01-19T11:42:21.455Z,65.74
2023-01-19T11:43:21.447Z,65.10
2023-01-19T11:44:21.460Z,65.90
2023-01-19T11:45:21.425Z,67.03
2023-01-19T11:46:21.426Z,65.10
2023-01-19T11:47:21.415Z,63.33
2023-01-19T11:48:21.424Z,64.78
2023-01-19T11:49:21.412Z,66.71
2023-01-19T11:50:21.384Z,65.10
2023-01-19T11:51:21.373Z,65.10
2023-01-19T11:52:21.376Z,64.13
2023-01-19T11:53:21.348Z,63.97
2023-01-19T11:54:21.371Z,64.78
2023-01-19T11:55:21.342Z,65.26
2023-01-19T11:56:21.355Z,64.61
2023-01-19T11:57:21.322Z,65.10
2023-01-19T11:58:21.316Z,66.39
2023-01-19T11:59:21.327Z,64.61
2023-01-19T12:00:21.306Z,65.90
2023-01-19T12:01:21.343Z,65.26
2023-01-19T12:02:21.393Z,65.10
2023-01-19T12:03:21.305Z,64.45
2023-01-19T12:04:21.292Z,63.97
2023-01-19T12:05:21.262Z,63.49
2023-01-19T12:06:21.256Z,63.65
2023-01-19T12:07:21.240Z,63.65
2023-01-19T12:08:21.223Z,63.33
2023-01-19T12:09:21.254Z,63.97
2023-01-19T12:10:21.236Z,65.10
2023-01-19T12:11:21.213Z,63.00
2023-01-19T12:12:21.494Z,65.10
2023-01-19T12:13:21.193Z,63.65
2023-01-19T12:14:21.221Z,63.00
2023-01-19T12:15:21.181Z,62.84
2023-01-19T12:16:21.204Z,63.16
2023-01-19T12:17:21.153Z,62.84
2023-01-19T12:18:21.206Z,62.52
2023-01-19T12:19:21.155Z,63.00
2023-01-19T12:20:21.163Z,63.97
2023-01-19T12:21:21.150Z,62.84
2023-01-19T12:22:21.128Z,63.16
2023-01-19T12:23:21.107Z,61.87
2023-01-19T12:24:21.152Z,61.71
2023-01-19T12:25:21.091Z,62.04
2023-01-19T12:26:21.090Z,62.52
2023-01-19T12:27:21.081Z,62.68
2023-01-19T12:28:21.069Z,63.81
2023-01-19T12:29:21.088Z,61.55
2023-01-19T12:30:21.056Z,61.87
2023-01-19T12:31:21.188Z,62.68
2023-01-19T12:32:21.077Z,63.00
2023-01-19T12:33:21.046Z,62.68
2023-01-19T12:34:21.039Z,63.49
2023-01-19T12:35:21.014Z,61.23
2023-01-19T12:36:21.000Z,63.33
2023-01-19T12:37:20.992Z,63.00
2023-01-19T12:38:20.990Z,63.33
2023-01-19T12:39:20.985Z,62.84
2023-01-19T12:40:21.012Z,62.84
2023-01-19T12:41:21.965Z,61.55
2023-01-19T12:42:21.489Z,61.55
2023-01-19T12:43:21.950Z,61.07
2023-01-19T12:44:20.968Z,62.04
2023-01-19T12:45:20.932Z,61.39
2023-01-19T12:46:20.949Z,61.07
2023-01-19T12:47:20.909Z,60.75
2023-01-19T12:48:20.894Z,61.87
2023-01-19T12:49:20.910Z,61.39
2023-01-19T12:50:20.905Z,60.26
2023-01-19T12:51:20.884Z,60.59
2023-01-19T12:52:20.860Z,61.23